Tiempo atmosférico en la estación meteorológica de Alosno, Huelva (276 m.)



Fecha
DESCASC
Temp. máxima en grados centígrados (hora)
DESCASC
Temp. mínima en grados centígrados (hora)
DESCASC
Temp. media en grados centígrados
DESCASC
Racha de viento máxima en m/sg (hora)
DESCASC
Velocidad máxima media en intervalos de 10 minutos(hora)
DESCASC
Precipitaciones diarias en mm
DESCASC
Precipitaciones de 00:00 a 06:00 en mm
DESCASC
Precipitaciones de 06:00 a 12:00 en mm
DESCASC
Precipitaciones de 12:00 a 18:00 en mm
DESCASC
Precipitaciones de 18:00 a 24:00 en mm
DESCASC

Gráficas

Temp. máximas Temp. mínimas Temp. medias Precipitaciones Rachas de viento máximas Velocidades máximas media en intervalos de 10 minutos

Datos horarios

Fecha y hora oficial Temperatura (ºC) Velocidad del viento (km/h) Dirección del viento Racha (km/h) Dirección de racha Precipitación (mm) Presión (hPa) Tendencia (hPa) Humedad (%)
2018-05-23 23:00:00 19.3 6 Oeste 10 Oeste 0 -- -- 63
2018-05-23 22:00:00 19.7 7 Oeste 13 Oeste 0 -- -- 62
2018-05-23 21:00:00 21.3 6 Oeste 13 Oeste 0 -- -- 57
2018-05-23 20:00:00 23.8 6 Sur 19 Sur 0 -- -- 51
2018-05-23 19:00:00 23.3 8 Sudoeste 24 Sudoeste 0 -- -- 51
2018-05-23 18:00:00 22.9 10 Sur 18 Sur 0 -- -- 50
2018-05-23 17:00:00 22.2 13 Sur 24 Sur 0 -- -- 53
2018-05-23 16:00:00 22.6 15 Sur 28 Sudeste 0 -- -- 51
2018-05-23 15:00:00 21.5 18 Sur 30 Sur 0 -- -- 56
2018-05-23 14:00:00 22 12 Sur 31 Sur 0 -- -- 54
2018-05-23 13:00:00 22 10 Sur 19 Sur 0 -- -- 59
2018-05-23 12:00:00 20.7 6 Sudeste 18 Este 0 -- -- 67
2018-05-23 11:00:00 19.3 6 Este 13 Este 0 -- -- 67
2018-05-23 10:00:00 17.9 5 Este 8 Este 0 -- -- 72
2018-05-23 09:00:00 15.4 0 Calma 4 Norte 0 -- -- 84
2018-05-23 08:00:00 12.6 4 Oeste 11 Noroeste 0 -- -- 94
2018-05-23 07:00:00 12.8 7 Oeste 15 Noroeste 0 -- -- 94
2018-05-23 06:00:00 13.3 6 Noroeste 10 Noroeste 0 -- -- 92
2018-05-23 05:00:00 13.6 6 Noroeste 11 Oeste 0 -- -- 91
2018-05-23 04:00:00 14.1 5 Noroeste 9 Noroeste 0 -- -- 88
2018-05-23 03:00:00 14.4 5 Oeste 10 Noroeste 0 -- -- 86
2018-05-23 02:00:00 15.2 6 Noroeste 16 Noroeste 0 -- -- 84
2018-05-23 01:00:00 16.3 10 Noroeste 14 Noroeste 0 -- -- 76
2018-05-23 00:00:00 17.5 4 Sudoeste 7 Oeste 0 -- -- 64
2018-05-22 23:00:00 17.2 5 Sudoeste 12 Sudoeste 0 -- -- 71
2018-05-22 22:00:00 18.2 9 Sudoeste 13 Sur 0 -- -- 68
2018-05-22 21:00:00 21.3 10 Sur 18 Sudoeste 0 -- -- 52
2018-05-22 20:00:00 22.4 13 Sur 22 Sudoeste 0 -- -- 52
2018-05-22 19:00:00 23.1 15 Sur 24 Sur 0 -- -- 50
2018-05-22 18:00:00 23.3 13 Sur 26 Sur 0 -- -- 50
2018-05-22 17:00:00 22.9 12 Sur 26 Sur 0 -- -- 49
2018-05-22 16:00:00 21.9 13 Sur 24 Sudeste 0 -- -- 59
2018-05-22 15:00:00 20.7 12 Sur 25 Sur 0 -- -- 62
2018-05-22 14:00:00 19.9 15 Sur 30 Sudoeste 0 -- -- 65
2018-05-22 13:00:00 18.4 13 Sur 28 Sur 0 -- -- 69
2018-05-22 12:00:00 16.8 17 Sur 30 Sur 0 -- -- 75
2018-05-22 11:00:00 15.1 17 Sur 26 Sur 0 -- -- 85
2018-05-22 10:00:00 14.9 10 Sur 21 Sur 0 -- -- 88
2018-05-22 09:00:00 14.6 7 Sudeste 18 Sudeste 0 -- -- 88
2018-05-22 08:00:00 14.1 9 Sudeste 19 Este 0 -- -- 89
2018-05-22 07:00:00 14 9 Sudeste 27 Este 0 -- -- 87
2018-05-22 06:00:00 14.3 6 Sudeste 22 Sudeste 0 -- -- 91
2018-05-22 05:00:00 14.5 6 Sudeste 16 Este 0 -- -- 94
2018-05-22 04:00:00 13.9 0 Calma 8 Oeste 0 -- -- 93
2018-05-22 03:00:00 13.8 3 Noroeste 11 Noroeste 0 -- -- 92
2018-05-22 02:00:00 14 7 Noroeste 13 Noroeste 0 -- -- 91
2018-05-22 01:00:00 14.7 8 Sudeste 15 Sur 0 -- -- 97
2018-05-22 00:00:00 15.1 5 Sur 19 Sur 0 -- -- 94
2018-05-21 23:00:00 15.5 17 Sur 27 Sur 0 -- -- 93
2018-05-21 22:00:00 16.7 18 Sur 24 Sur 0 -- -- 88
2018-05-21 21:00:00 18.9 15 Sur 28 Sudoeste 0 -- -- 78
2018-05-21 20:00:00 19.8 23 Sudoeste 32 Sudoeste 0 -- -- 72
2018-05-21 19:00:00 21.6 17 Sudoeste 31 Sudoeste 0 -- -- 68
2018-05-21 18:00:00 24.1 5 Sudoeste 13 Sur 0 -- -- 50
2018-05-21 17:00:00 22.7 10 Sudoeste 16 Sur 0 -- -- 60
2018-05-21 16:00:00 22.4 6 Oeste 19 Noroeste 0 -- -- 64
2018-05-21 15:00:00 21.8 7 Oeste 15 Sudoeste 0 -- -- 66
2018-05-21 14:00:00 20.9 10 Sudoeste 17 Sudoeste 0 -- -- 69
2018-05-21 13:00:00 19.5 6 Oeste 13 Oeste 0 -- -- 76
2018-05-21 12:00:00 16.5 5 Noroeste 11 Noroeste 0 -- -- 87
2018-05-21 11:00:00 15 6 Noroeste 10 Noroeste 0 -- -- 94
2018-05-21 10:00:00 14.3 6 Noroeste 9 Noroeste 0 -- -- 98
2018-05-21 09:00:00 14.1 5 Noroeste 11 Noroeste 0 -- -- 100
2018-05-21 08:00:00 13.7 5 Noroeste 10 Oeste 0 -- -- 100
2018-05-21 07:00:00 13.9 5 Noroeste 9 Norte 0 -- -- 100
2018-05-21 06:00:00 14 4 Norte 10 Norte 0 -- -- 100
2018-05-21 05:00:00 14.3 4 Noroeste 13 Oeste 0 -- -- 99
2018-05-21 04:00:00 14.7 2 Noroeste 10 Noroeste 0 -- -- 97
2018-05-21 03:00:00 14.5 2 Sudeste 10 Noroeste 0 -- -- 97
2018-05-21 02:00:00 14.4 5 Noroeste 7 Norte 0 -- -- 97
2018-05-21 01:00:00 15.1 5 Nordeste 14 Sur 0 -- -- 93
2018-05-21 00:00:00 15.8 13 Sudoeste 19 Sur 0 -- -- 89
2018-05-20 23:00:00 15.9 13 Sur 19 Sur 0 -- -- 90
2018-05-20 22:00:00 16.8 12 Sur 22 Sur 0 -- -- 84
2018-05-20 21:00:00 18.9 11 Sur 20 Sur 0 -- -- 69
2018-05-20 20:00:00 21 3 Noroeste 13 Noroeste 0 -- -- 56
2018-05-20 19:00:00 18.6 6 Oeste 12 Sudoeste 0 -- -- 74
2018-05-20 18:00:00 17.6 7 Sudoeste 18 Sur 0 -- -- 84
2018-05-20 17:00:00 17 15 Sur 22 Sudeste 0 -- -- 85
2018-05-20 16:00:00 16 15 Sur 22 Sudeste 2.6 -- -- 85
2018-05-20 15:00:00 16.5 13 Este 24 Este 6.8 -- -- 91
2018-05-20 14:00:00 16.9 14 Nordeste 45 Norte 1.6 -- -- 80
2018-05-20 13:00:00 24.2 6 Norte 19 Noroeste 0 -- -- 52
2018-05-20 12:00:00 22.8 5 Nordeste 9 Nordeste 0 -- -- 54
2018-05-20 11:00:00 20.9 4 Sudoeste 9 Sudoeste 0 -- -- 66
2018-05-20 10:00:00 17.7 4 Noroeste 8 Noroeste 0 -- -- 83
2018-05-20 09:00:00 15 8 Noroeste 12 Noroeste 0 -- -- 96
2018-05-20 08:00:00 14.6 4 Oeste 7 Oeste 0 -- -- 94
2018-05-20 07:00:00 14.8 3 Oeste 6 Oeste 0 -- -- 93
2018-05-20 06:00:00 14.9 4 Noroeste 6 Noroeste 0 -- -- 93
2018-05-20 05:00:00 15.3 2 Oeste 6 Noroeste 0 -- -- 90
2018-05-20 04:00:00 15.1 5 Noroeste 13 Noroeste 0 -- -- 87
2018-05-20 03:00:00 15.4 10 Noroeste 12 Noroeste 0 -- -- 81
2018-05-20 02:00:00 15.6 6 Oeste 10 Noroeste 0 -- -- 80
2018-05-20 01:00:00 16.4 8 Noroeste 13 Oeste 0 -- -- 78
2018-05-20 00:00:00 15.7 4 Oeste 9 Sudeste 0 -- -- 86
2018-05-19 23:00:00 16 4 Sudoeste 22 Sudeste 0 -- -- 83
2018-05-19 22:00:00 16 16 Sudeste 38 Sudeste 3.8 -- -- 81
2018-05-19 21:00:00 18.6 13 Sur 37 Este 4 -- -- 72
2018-05-19 20:00:00 24.1 14 Sudoeste 26 Sudoeste 0 -- -- 43
2018-05-19 19:00:00 24.9 5 Sudeste 22 Noroeste 0 -- -- 42
2018-05-19 18:00:00 24.8 9 Oeste 27 Sur 0 -- -- 38
2018-05-19 17:00:00 25.9 10 Sudeste 21 Este 0 -- -- 34
2018-05-19 16:00:00 25.3 9 Sur 23 Este 0 -- -- 35
2018-05-19 15:00:00 25.7 7 Sur 25 Sudeste 0 -- -- 36
2018-05-19 14:00:00 24.9 13 Sudeste 28 Este 0 -- -- 39
2018-05-19 13:00:00 25 11 Este 28 Sudeste 0 -- -- 42
2018-05-19 12:00:00 23.4 9 Sudeste 22 Este 0 -- -- 47
2018-05-19 11:00:00 21.5 9 Este 20 Este 0 -- -- 53
2018-05-19 10:00:00 18.5 8 Nordeste 13 Nordeste 0 -- -- 66
2018-05-19 09:00:00 16.8 5 Nordeste 9 Este 0 -- -- 72
2018-05-19 08:00:00 15.4 6 Este 10 Este 0 -- -- 77
2018-05-19 07:00:00 14.7 4 Este 10 Este 0 -- -- 81
2018-05-19 06:00:00 14.4 5 Este 10 Nordeste 0 -- -- 83
2018-05-19 05:00:00 14.8 5 Este 10 Este 0 -- -- 83
2018-05-19 04:00:00 15.3 5 Nordeste 13 Nordeste 0 -- -- 82
2018-05-19 03:00:00 15.7 5 Este 12 Este 0 -- -- 80
2018-05-19 02:00:00 16.4 6 Este 15 Nordeste 0 -- -- 79
2018-05-19 01:00:00 17 7 Este 12 Sudeste 0 -- -- 77
2018-05-19 00:00:00 17.5 0 Calma 19 Sur 0 -- -- 73
2018-05-18 23:00:00 17.9 16 Sur 23 Sur 0 -- -- 71
2018-05-18 22:00:00 18.7 16 Sur 21 Sur 0 -- -- 66
2018-05-18 21:00:00 20.3 14 Sur 21 Sur 0 -- -- 59
2018-05-18 20:00:00 21.9 15 Sur 25 Sur 0 -- -- 53
2018-05-18 19:00:00 22.5 16 Sudoeste 33 Sur 0 -- -- 50
2018-05-18 18:00:00 23.8 18 Sudoeste 36 Sur 0 -- -- 48
2018-05-18 17:00:00 24.3 21 Sur 36 Sur 0 -- -- 47
2018-05-18 16:00:00 23.1 14 Sudoeste 23 Sudoeste 0 -- -- 55
2018-05-18 15:00:00 23.8 13 Sudoeste 24 Sur 0 -- -- 51
2018-05-18 14:00:00 23.6 12 Sur 23 Sur 0 -- -- 51
2018-05-18 13:00:00 23 10 Sur 23 Sur 0 -- -- 55
2018-05-18 12:00:00 21.3 7 Sur 20 Sudoeste 0 -- -- 62
2018-05-18 11:00:00 19.9 6 Sudeste 13 Sur 0 -- -- 69
2018-05-18 10:00:00 17.2 6 Sudeste 13 Sudeste 0 -- -- 79
2018-05-18 09:00:00 14.5 5 Este 14 Sur 0 -- -- 93
2018-05-18 08:00:00 14.6 10 Sudoeste 18 Sudoeste 0 -- -- 91
2018-05-18 07:00:00 14.5 14 Sudoeste 19 Sudoeste 0 -- -- 93
2018-05-18 06:00:00 14.5 14 Sudoeste 23 Sur 0 -- -- 93
2018-05-18 05:00:00 14.7 18 Sur 24 Sur 0 -- -- 91
2018-05-18 04:00:00 15.1 16 Sudoeste 22 Sudoeste 0 -- -- 88
2018-05-18 03:00:00 15.3 14 Sudoeste 22 Sudoeste 0 -- -- 87
2018-05-18 02:00:00 15.6 14 Sudoeste 23 Sudoeste 0 -- -- 86
2018-05-18 01:00:00 15.8 16 Sudoeste 23 Sudoeste 0 -- -- 86
2018-05-18 00:00:00 16 9 Sudoeste 26 Sudoeste 0 -- -- 86
2018-05-17 23:00:00 16.4 15 Sudoeste 32 Sudoeste 0 -- -- 85
2018-05-17 22:00:00 17.1 27 Sur 36 Sudoeste 0.4 -- -- 83
2018-05-17 21:00:00 19.2 17 Sur 42 Sur 0 -- -- 70
2018-05-17 20:00:00 20.6 33 Sudoeste 46 Sudoeste 0 -- -- 59
2018-05-17 19:00:00 22.6 30 Sur 42 Sur 0 -- -- 48
2018-05-17 18:00:00 27.7 9 Sudoeste 27 Sudoeste 0 -- -- 35
2018-05-17 17:00:00 27.8 12 Noroeste 28 Oeste 0 -- -- 35
2018-05-17 16:00:00 26.5 10 Noroeste 24 Noroeste 0 -- -- 35
2018-05-17 15:00:00 26.5 8 Sur 21 Noroeste 0 -- -- 37
2018-05-17 14:00:00 25.9 10 Sur 18 Sudoeste 0 -- -- 38
2018-05-17 13:00:00 24.1 8 Oeste 15 Sudoeste 0 -- -- 40
2018-05-17 12:00:00 22.6 6 Sur 18 Sur 0 -- -- 44
2018-05-17 11:00:00 21 10 Sur 17 Sudoeste 0 -- -- 48
2018-05-17 10:00:00 19.5 5 Sudeste 10 Sur 0 -- -- 55
2018-05-17 09:00:00 16.1 4 Nordeste 6 Nordeste 0 -- -- 73
2018-05-17 08:00:00 14.4 3 Este 6 Nordeste 0 -- -- 78
2018-05-17 07:00:00 14.2 2 Nordeste 5 Sudoeste 0 -- -- 80
2018-05-17 06:00:00 14.6 0 Calma 9 Sur 0 -- -- 77
2018-05-17 05:00:00 15 9 Sudoeste 29 Sudoeste 0 -- -- 74
2018-05-17 04:00:00 15.6 23 Sur 31 Sur 0 -- -- 72
2018-05-17 03:00:00 15.5 24 Sur 37 Sur 0 -- -- 72
2018-05-17 02:00:00 16.2 27 Sur 38 Sudoeste 0 -- -- 66
2018-05-17 01:00:00 17.3 16 Sur 26 Sudoeste 0 -- -- 55
2018-05-17 00:00:00 18.1 15 Sudoeste 30 Sudoeste 0 -- -- 51
2018-05-16 23:00:00 18.7 22 Sudoeste 40 Sur 0 -- -- 48
2018-05-16 22:00:00 19.8 30 Sudoeste 37 Sur 0 -- -- 44
2018-05-16 21:00:00 25 16 Sur 22 Sur 0 -- -- 39
2018-05-16 20:00:00 27.3 15 Sudoeste 21 Sudoeste 0 -- -- 35
2018-05-16 19:00:00 28.2 8 Sudeste 23 Este 0 -- -- 32
2018-05-16 18:00:00 28.7 11 Este 24 Sudeste 0 -- -- 30
2018-05-16 17:00:00 28.7 8 Este 28 Este 0 -- -- 29
2018-05-16 16:00:00 28.6 14 Este 34 Este 0 -- -- 29
2018-05-16 15:00:00 28.1 15 Sudeste 36 Este 0 -- -- 29
2018-05-16 14:00:00 27.2 15 Este 30 Este 0 -- -- 31
2018-05-16 13:00:00 25.8 13 Sudeste 23 Este 0 -- -- 35
2018-05-16 12:00:00 23.9 9 Este 17 Este 0 -- -- 40
2018-05-16 11:00:00 22.1 8 Sudeste 15 Sudeste 0 -- -- 43
2018-05-16 10:00:00 19.9 6 Sudeste 12 Este 0 -- -- 48
2018-05-16 09:00:00 18.6 4 Este 9 Este 0 -- -- 50
2018-05-16 08:00:00 17.5 5 Este 6 Este 0 -- -- 57
2018-05-16 07:00:00 16.6 2 Este 4 Este 0 -- -- 49
2018-05-16 06:00:00 16.7 2 Sudeste 4 Norte 0 -- -- 50
2018-05-16 05:00:00 17.5 4 Nordeste 10 Nordeste 0 -- -- 47
2018-05-16 04:00:00 18.4 5 Este 9 Este 0 -- -- 46
2018-05-16 03:00:00 18.7 3 Sudeste 6 Este 0 -- -- 44
2018-05-16 02:00:00 19.2 7 Este 12 Nordeste 0 -- -- 43
2018-05-16 01:00:00 19.9 9 Nordeste 13 Nordeste 0 -- -- 41
2018-05-16 00:00:00 20.4 11 Nordeste 14 Nordeste 0 -- -- 41
2018-05-15 23:00:00 21.8 9 Nordeste 13 Nordeste 0 -- -- 41
2018-05-15 22:00:00 23.3 3 Sur 14 Sudoeste 0 -- -- 39
2018-05-15 21:00:00 25.9 10 Nordeste 23 Nordeste 0 -- -- 32
2018-05-15 20:00:00 27.1 10 Norte 21 Nordeste 0 -- -- 29
2018-05-15 19:00:00 28.3 3 Sudoeste 21 Este 0 -- -- 28
2018-05-15 18:00:00 27.9 9 Sudeste 27 Este 0 -- -- 28
2018-05-15 17:00:00 27.6 10 Este 27 Norte 0 -- -- 28
2018-05-15 16:00:00 26.6 10 Nordeste 26 Nordeste 0 -- -- 29
2018-05-15 15:00:00 26.1 12 Nordeste 29 Este 0 -- -- 30
2018-05-15 14:00:00 25 15 Nordeste 29 Este 0 -- -- 31
2018-05-15 13:00:00 24.4 12 Este 29 Nordeste 0 -- -- 33
2018-05-15 12:00:00 23 17 Nordeste 30 Este 0 -- -- 35
2018-05-15 11:00:00 21.8 14 Este 28 Este 0 -- -- 40
2018-05-15 10:00:00 19.9 10 Nordeste 19 Nordeste 0 -- -- 47
2018-05-15 09:00:00 16.7 4 Norte 8 Noroeste 0 -- -- 65
2018-05-15 08:00:00 13.1 5 Noroeste 9 Noroeste 0 -- -- 85
2018-05-15 07:00:00 12 2 Norte 14 Noroeste 0 -- -- 91
2018-05-15 06:00:00 12.7 8 Noroeste 13 Noroeste 0 -- -- 89
2018-05-15 05:00:00 13.1 6 Noroeste 17 Noroeste 0 -- -- 89
2018-05-15 04:00:00 13.7 8 Noroeste 13 Noroeste 0 -- -- 87
2018-05-15 03:00:00 14.7 8 Noroeste 15 Noroeste 0 -- -- 82
2018-05-15 02:00:00 15.9 9 Noroeste 17 Noroeste 0 -- -- 76
2018-05-15 01:00:00 16.7 12 Norte 24 Norte 0 -- -- 72
2018-05-15 00:00:00 17.6 16 Norte 27 Noroeste 0 -- -- 62
2018-05-14 23:00:00 19.2 12 Norte 18 Norte 0 -- -- 53
2018-05-14 22:00:00 20.4 10 Norte 23 Norte 0 -- -- 51
2018-05-14 21:00:00 21.9 14 Norte 33 Norte 0 -- -- 46
2018-05-14 20:00:00 23.8 17 Norte 34 Norte 0 -- -- 40
2018-05-14 19:00:00 23.9 19 Norte 36 Norte 0 -- -- 42
2018-05-14 18:00:00 24.1 21 Norte 39 Norte 0 -- -- 42
2018-05-14 17:00:00 24.3 19 Norte 37 Norte 0 -- -- 40
2018-05-14 16:00:00 24.1 20 Norte 37 Norte 0 -- -- 40
2018-05-14 15:00:00 23.4 19 Norte 34 Norte 0 -- -- 40
2018-05-14 14:00:00 22 22 Norte 38 Norte 0 -- -- 45
2018-05-14 13:00:00 20.7 17 Norte 31 Nordeste 0 -- -- 47
2018-05-14 12:00:00 19.2 18 Norte 32 Norte 0 -- -- 48
2018-05-14 11:00:00 17.3 14 Norte 23 Norte 0 -- -- 52
2018-05-14 10:00:00 14.2 10 Norte 22 Norte 0 -- -- 64
2018-05-14 09:00:00 11.3 13 Norte 29 Norte 0 -- -- 76
2018-05-14 08:00:00 9.4 14 Norte 23 Norte 0 -- -- 84
2018-05-14 07:00:00 8.7 10 Noroeste 18 Noroeste 0 -- -- 88
2018-05-14 06:00:00 9.4 10 Noroeste 16 Noroeste 0 -- -- 85
2018-05-14 05:00:00 10.5 8 Noroeste 17 Noroeste 0 -- -- 79
2018-05-14 04:00:00 11.3 10 Norte 25 Norte 0 -- -- 76
2018-05-14 03:00:00 12.2 17 Norte 31 Norte 0 -- -- 72
2018-05-14 02:00:00 12.8 19 Norte 28 Noroeste 0 -- -- 69
2018-05-14 01:00:00 13.3 13 Noroeste 23 Noroeste 0 -- -- 65
2018-05-11 20:00:00 21.5 18 Sudoeste 24 Sudoeste 0 -- -- 61
2018-05-11 19:00:00 23 9 Oeste 19 Noroeste 0 -- -- 50
2018-05-11 18:00:00 23.1 8 Noroeste 20 Noroeste 0 -- -- 47
2018-05-11 17:00:00 23.8 6 Noroeste 35 Sudoeste 0 -- -- 49
2018-05-11 16:00:00 22.8 8 Oeste 16 Noroeste 0 -- -- 46
2018-05-11 15:00:00 21.6 7 Sudoeste 19 Sur 0 -- -- 49
2018-05-11 14:00:00 19.5 4 Nordeste 20 Sur 0 -- -- 58
2018-05-11 13:00:00 19 9 Sudoeste 19 Sudoeste 0 -- -- 62
2018-05-11 12:00:00 16.9 4 Sudeste 13 Sudeste 0 -- -- 70
2018-05-11 11:00:00 13.6 2 Nordeste 8 Noroeste 0 -- -- 89
2018-05-11 10:00:00 12.7 3 Noroeste 8 Noroeste 0 -- -- 94
2018-05-11 09:00:00 11.9 5 Noroeste 8 Noroeste 0 -- -- 95
2018-05-11 08:00:00 10.9 0 Calma 6 Noroeste 0 -- -- 97
2018-05-11 07:00:00 11.1 2 Oeste 8 Noroeste 0 -- -- 96
2018-05-11 06:00:00 11.8 2 Oeste 4 Noroeste 0 -- -- 91
2018-05-11 05:00:00 12.2 4 Noroeste 5 Noroeste 0 -- -- 87
2018-05-11 04:00:00 12.5 2 Noroeste 7 Oeste 0 -- -- 86
2018-05-11 03:00:00 12.6 2 Nordeste 5 Sudeste 0 -- -- 88
2018-05-11 02:00:00 12.8 2 Nordeste 13 Este 0 -- -- 86
2018-05-11 01:00:00 13.2 5 Este 7 Este 0 -- -- 84
2018-05-11 00:00:00 13.5 5 Sur 12 Sudeste 0 -- -- 84
2018-05-10 23:00:00 13.8 5 Sur 18 Sudoeste 0 -- -- 83
2018-05-10 22:00:00 14.5 15 Sur 24 Sur 0 -- -- 81
2018-05-10 21:00:00 16.5 18 Sur 30 Sudoeste 0 -- -- 74
2018-05-10 20:00:00 18 23 Sur 32 Sur 0 -- -- 69
2018-05-10 19:00:00 19.4 24 Sur 36 Sudoeste 0 -- -- 64
2018-05-10 18:00:00 20.2 28 Sur 38 Sur 0 -- -- 61
2018-05-10 17:00:00 23.5 6 Sudeste 17 Este 0 -- -- 44
2018-05-10 16:00:00 22.2 6 Nordeste 18 Nordeste 0 -- -- 46
2018-05-10 15:00:00 21.1 8 Oeste 17 Oeste 0 -- -- 54
2018-05-10 14:00:00 19.7 7 Oeste 16 Noroeste 0 -- -- 57
2018-05-10 13:00:00 18.1 4 Norte 16 Oeste 0 -- -- 60
2018-05-10 12:00:00 16.3 6 Noroeste 15 Norte 0 -- -- 67
2018-05-10 11:00:00 13.9 10 Noroeste 22 Norte 0 -- -- 76
2018-05-10 10:00:00 12.4 12 Noroeste 25 Noroeste 0 -- -- 82
2018-05-10 09:00:00 10.8 12 Noroeste 22 Noroeste 0 -- -- 90
2018-05-10 08:00:00 10.3 10 Noroeste 18 Norte 0 -- -- 94
2018-05-10 07:00:00 9.8 12 Noroeste 19 Noroeste 0 -- -- 95
2018-05-10 06:00:00 9.8 12 Noroeste 20 Noroeste 0 -- -- 94
2018-05-10 05:00:00 10.3 10 Noroeste 22 Noroeste 0 -- -- 92
2018-05-10 04:00:00 10.6 10 Noroeste 21 Noroeste 0 -- -- 91
2018-05-10 03:00:00 11 10 Noroeste 27 Noroeste 0 -- -- 90
2018-05-10 02:00:00 12.1 14 Noroeste 21 Noroeste 0 -- -- 89
2018-05-10 01:00:00 13.1 12 Noroeste 22 Oeste 0 -- -- 88
2018-05-10 00:00:00 14.2 11 Noroeste 15 Noroeste 0 -- -- 87
2018-05-09 23:00:00 15.4 9 Noroeste 22 Noroeste 0 -- -- 82
2018-05-09 22:00:00 15.7 15 Noroeste 27 Noroeste 0 -- -- 81
2018-05-09 21:00:00 16.3 14 Noroeste 22 Noroeste 0 -- -- 79
2018-05-09 20:00:00 16.8 11 Noroeste 22 Noroeste 0 -- -- 77
2018-05-09 19:00:00 16.7 15 Noroeste 21 Noroeste 0 -- -- 79
2018-05-09 18:00:00 16.9 15 Noroeste 25 Noroeste 0 -- -- 78
2018-05-09 17:00:00 17.4 15 Noroeste 30 Oeste 0 -- -- 77
2018-05-09 16:00:00 18.1 18 Noroeste 28 Oeste 0 -- -- 73
2018-05-09 15:00:00 18.9 13 Noroeste 25 Noroeste 0 -- -- 71
2018-05-09 14:00:00 17 11 Norte 23 Noroeste 0 -- -- 77
2018-05-09 13:00:00 15.8 15 Noroeste 24 Noroeste 0 -- -- 81
2018-05-09 12:00:00 14.8 11 Noroeste 19 Noroeste 0 -- -- 84
2018-05-09 11:00:00 13.2 10 Norte 23 Norte 0 -- -- 91
2018-05-09 10:00:00 12.1 12 Norte 27 Noroeste 0 -- -- 95
2018-05-09 09:00:00 11.3 15 Noroeste 29 Noroeste 0 -- -- 98
2018-05-09 08:00:00 11 12 Noroeste 32 Noroeste 0 -- -- 99
2018-05-09 07:00:00 10.8 15 Noroeste 30 Noroeste 0 -- -- 98
2018-05-09 06:00:00 10.7 22 Noroeste 32 Noroeste 0 -- -- 98
2018-05-09 05:00:00 11.1 19 Noroeste 31 Noroeste 0 -- -- 96
2018-05-09 04:00:00 12 18 Noroeste 26 Noroeste 0 -- -- 93
2018-05-09 03:00:00 13.3 14 Noroeste 27 Noroeste 0 -- -- 91
2018-05-09 02:00:00 14.7 18 Noroeste 29 Noroeste 0 -- -- 89
2018-05-09 01:00:00 16.1 16 Noroeste 24 Noroeste 0 -- -- 89
2018-05-09 00:00:00 17.8 13 Noroeste 24 Noroeste 0 -- -- 84
2018-05-08 23:00:00 19.2 12 Noroeste 27 Noroeste 0 -- -- 79
2018-05-08 22:00:00 20.6 13 Noroeste 21 Noroeste 0 -- -- 73
2018-05-08 21:00:00 22.8 13 Noroeste 27 Noroeste 0 -- -- 63
2018-05-08 20:00:00 24 15 Noroeste 32 Noroeste 0 -- -- 55
2018-05-08 19:00:00 25 15 Noroeste 29 Norte 0 -- -- 56
2018-05-08 18:00:00 24.7 11 Noroeste 28 Oeste 0 -- -- 59
2018-05-08 17:00:00 23.6 18 Oeste 28 Noroeste 0 -- -- 62
2018-05-08 16:00:00 21.4 15 Noroeste 37 Noroeste 0 -- -- 67
2018-05-08 15:00:00 24.1 15 Oeste 30 Noroeste 0 -- -- 57
2018-05-08 14:00:00 22.6 9 Noroeste 18 Noroeste 0 -- -- 61
2018-05-08 13:00:00 20.1 10 Noroeste 18 Noroeste 0 -- -- 73
2018-05-08 12:00:00 17.8 8 Noroeste 23 Noroeste 0 -- -- 86
2018-05-08 11:00:00 15.1 8 Noroeste 18 Oeste 0 -- -- 96
2018-05-08 10:00:00 14.3 12 Noroeste 26 Noroeste 0.2 -- -- 98
2018-05-08 09:00:00 14.3 12 Noroeste 19 Noroeste 0 -- -- 96
2018-05-08 08:00:00 14.5 9 Noroeste 17 Noroeste 0 -- -- 94
2018-05-08 07:00:00 14.5 8 Noroeste 25 Noroeste 0 -- -- 93
2018-05-08 06:00:00 14.7 17 Noroeste 28 Noroeste 0 -- -- 90
2018-05-08 05:00:00 14.8 17 Noroeste 25 Noroeste 0 -- -- 91
2018-05-08 04:00:00 14.9 11 Noroeste 15 Noroeste 0 -- -- 91
2018-05-08 03:00:00 14.9 10 Noroeste 16 Noroeste 0 -- -- 90
2018-05-08 02:00:00 15.7 10 Noroeste 15 Noroeste 0 -- -- 87
2018-05-08 01:00:00 16.5 10 Noroeste 16 Noroeste 0 -- -- 83
2018-05-08 00:00:00 16.8 10 Noroeste 20 Noroeste 0 -- -- 82
2018-05-07 23:00:00 18 13 Noroeste 23 Noroeste 0 -- -- 77
2018-05-07 22:00:00 18.6 10 Oeste 14 Oeste 0 -- -- 67
2018-05-07 21:00:00 20.1 11 Oeste 20 Sudoeste 0 -- -- 60
2018-05-07 20:00:00 21.9 14 Sudoeste 27 Sudoeste 0 -- -- 54
2018-05-07 19:00:00 23.8 13 Sudoeste 26 Sudoeste 0 -- -- 48
2018-05-07 18:00:00 24.8 17 Sudoeste 28 Sudoeste 0 -- -- 48
2018-05-07 17:00:00 25 10 Oeste 24 Sudoeste 0 -- -- 45
2018-05-07 16:00:00 25.2 11 Sudoeste 19 Sur 0 -- -- 48
2018-05-07 15:00:00 24.2 12 Sur 24 Sur 0 -- -- 49
2018-05-07 14:00:00 23.4 14 Sur 24 Sudeste 0 -- -- 49
2018-05-07 13:00:00 21.9 16 Sur 29 Sur 0 -- -- 53
2018-05-07 12:00:00 21.3 10 Sur 22 Sur 0 -- -- 58
2018-05-07 11:00:00 19.4 12 Sudeste 25 Este 0.2 -- -- 60
2018-05-07 10:00:00 18.3 11 Este 17 Este 0 -- -- 69
2018-05-07 09:00:00 16.3 5 Este 12 Este 0 -- -- 77
2018-05-07 08:00:00 14.6 5 Este 9 Este 0 -- -- 84
2018-05-07 07:00:00 14.6 3 Sudeste 12 Este 0 -- -- 84
2018-05-07 06:00:00 14.1 6 Nordeste 10 Este 0 -- -- 87
2018-05-07 05:00:00 14.6 4 Este 11 Este 0 -- -- 86
2018-05-07 04:00:00 14.9 5 Este 6 Este 0 -- -- 90
2018-05-07 03:00:00 15.3 3 Sudeste 8 Este 0 -- -- 88
2018-05-07 02:00:00 15.6 2 Oeste 13 Noroeste 0 -- -- 85
2018-05-07 01:00:00 15.9 9 Noroeste 14 Noroeste 0 -- -- 85
2018-05-07 00:00:00 16.1 9 Oeste 22 Noroeste 0 -- -- 80
2018-05-06 23:00:00 15.6 7 Noroeste 26 Nordeste 0.8 -- -- 83
2018-05-06 22:00:00 16.5 16 Nordeste 29 Nordeste 0.2 -- -- 77
2018-05-06 21:00:00 15.8 20 Nordeste 42 Nordeste 0.8 -- -- 87
2018-05-06 20:00:00 18.5 6 Nordeste 21 Sudeste 2.4 -- -- 78
2018-05-06 19:00:00 20.6 10 Oeste 32 Norte 0 -- -- 66
2018-05-06 18:00:00 23.7 6 Nordeste 29 Este 0.4 -- -- 52
2018-05-06 17:00:00 25.7 10 Este 23 Este 0 -- -- 43
2018-05-06 16:00:00 25.8 16 Sudeste 26 Sudeste 0 -- -- 42
2018-05-06 15:00:00 25.4 15 Este 27 Nordeste 0 -- -- 40
2018-05-06 14:00:00 24.5 12 Este 27 Este 0 -- -- 42
2018-05-06 13:00:00 23.3 17 Este 28 Este 0 -- -- 49
2018-05-06 12:00:00 22.3 12 Este 21 Este 0 -- -- 55
2018-05-06 11:00:00 20.7 10 Sudeste 17 Sudeste 0 -- -- 56
2018-05-06 10:00:00 19.4 7 Este 12 Este 0 -- -- 63
2018-05-06 09:00:00 16.2 4 Este 9 Nordeste 0 -- -- 77
2018-05-06 08:00:00 13.7 6 Nordeste 10 Este 0 -- -- 85
2018-05-06 07:00:00 14.1 9 Este 13 Este 0 -- -- 82
2018-05-06 06:00:00 14.1 6 Este 10 Este 0 -- -- 81
2018-05-06 05:00:00 13.9 0 Calma 12 Noroeste 0 -- -- 80
2018-05-06 04:00:00 13.5 9 Noroeste 19 Noroeste 0 -- -- 78
2018-05-06 03:00:00 14 12 Noroeste 22 Noroeste 0 -- -- 76
2018-05-06 02:00:00 15.2 17 Noroeste 24 Noroeste 0 -- -- 71
2018-05-06 01:00:00 16 14 Noroeste 21 Noroeste 0 -- -- 73
2018-05-06 00:00:00 17 13 Noroeste 19 Noroeste 0 -- -- 71
2018-05-05 23:00:00 19.1 13 Noroeste 21 Oeste 0 -- -- 58
2018-05-05 22:00:00 20 9 Oeste 15 Sudoeste 0 -- -- 56
2018-05-05 21:00:00 21.7 12 Sudoeste 24 Sur 0 -- -- 53
2018-05-05 20:00:00 24.6 6 Sudoeste 15 Sur 0 -- -- 43
2018-05-05 19:00:00 24.7 5 Noroeste 18 Sur 0 -- -- 43
2018-05-05 18:00:00 24.9 6 Oeste 15 Sur 0 -- -- 42
2018-05-05 17:00:00 24.7 10 Sudeste 23 Sur 0 -- -- 45
2018-05-05 16:00:00 24.4 13 Sudeste 23 Sur 0 -- -- 45
2018-05-05 15:00:00 23.8 6 Sudeste 20 Sur 0 -- -- 45
2018-05-05 14:00:00 23.3 9 Sur 19 Sur 0 -- -- 49
2018-05-05 13:00:00 22.5 6 Sur 15 Sur 0 -- -- 49
2018-05-05 12:00:00 21 6 Sudeste 14 Sudeste 0 -- -- 55
2018-05-05 11:00:00 19.5 4 Sudeste 10 Este 0 -- -- 54
2018-05-05 10:00:00 16.1 6 Este 13 Nordeste 0 -- -- 78
2018-05-05 09:00:00 14.2 9 Este 11 Este 0 -- -- 87
2018-05-05 08:00:00 12.2 6 Este 10 Este 0 -- -- 94
2018-05-05 07:00:00 12.3 5 Sudeste 13 Sudeste 0 -- -- 90
2018-05-05 06:00:00 12.2 4 Sudeste 8 Este 0 -- -- 94
2018-05-05 05:00:00 12.3 3 Este 10 Sudeste 0 -- -- 93
2018-05-05 04:00:00 13.2 5 Sur 12 Sur 0 -- -- 90
2018-05-05 03:00:00 13.3 4 Este 13 Sudeste 0 -- -- 92
2018-05-05 02:00:00 13.6 8 Sudeste 19 Sudeste 0 -- -- 94
2018-05-05 01:00:00 13.2 7 Este 14 Sur 0 -- -- 93
2018-05-05 00:00:00 14 10 Sudeste 21 Sur 0 -- -- 93
2018-05-04 23:00:00 14.9 14 Sudeste 31 Sur 0 -- -- 76
2018-05-04 22:00:00 16.6 22 Sur 31 Sur 0 -- -- 61
2018-05-04 21:00:00 18.4 17 Sudoeste 29 Sudoeste 0 -- -- 54
2018-05-04 20:00:00 21 19 Sudoeste 29 Sudoeste 0 -- -- 49
2018-05-04 19:00:00 21 12 Sur 25 Sudoeste 0 -- -- 49
2018-05-04 18:00:00 22.7 5 Norte 23 Noroeste 0 -- -- 44
2018-05-04 17:00:00 23.6 4 Oeste 13 Oeste 0 -- -- 41
2018-05-04 16:00:00 23.5 10 Oeste 21 Sur 0 -- -- 44
2018-05-04 15:00:00 23.1 12 Sur 20 Sur 0 -- -- 42
2018-05-04 14:00:00 22.5 5 Sur 18 Este 0 -- -- 46
2018-05-04 13:00:00 21.3 8 Sur 17 Este 0 -- -- 51
2018-05-04 12:00:00 19.9 7 Este 18 Este 0 -- -- 55
2018-05-04 11:00:00 17.4 4 Este 7 Oeste 0 -- -- 66
2018-05-04 10:00:00 12.6 6 Noroeste 14 Noroeste 0 -- -- 89
2018-05-04 09:00:00 10.1 10 Noroeste 19 Noroeste 0 -- -- 96
2018-05-04 08:00:00 8.9 10 Noroeste 19 Noroeste 0 -- -- 98
2018-05-04 07:00:00 9.3 13 Noroeste 23 Noroeste 0 -- -- 98
2018-05-04 06:00:00 9.7 14 Noroeste 22 Noroeste 0 -- -- 97
2018-05-04 05:00:00 10.3 14 Noroeste 24 Noroeste 0 -- -- 95
2018-05-04 04:00:00 11.1 15 Noroeste 26 Noroeste 0 -- -- 93
2018-05-04 03:00:00 11.9 15 Noroeste 23 Noroeste 0 -- -- 90
2018-05-04 02:00:00 12.7 13 Noroeste 23 Noroeste 0 -- -- 88
2018-05-04 01:00:00 13.5 14 Noroeste 21 Noroeste 0 -- -- 85
2018-05-04 00:00:00 15.4 12 Noroeste 25 Norte 0 -- -- 75
2018-05-03 23:00:00 16.6 13 Noroeste 22 Noroeste 0 -- -- 69
2018-05-03 22:00:00 17.8 9 Norte 21 Norte 0 -- -- 60
2018-05-03 21:00:00 19.7 15 Norte 33 Norte 0 -- -- 54
2018-05-03 20:00:00 21.1 18 Noroeste 32 Noroeste 0 -- -- 49
2018-05-03 19:00:00 22 14 Norte 32 Noroeste 0 -- -- 46
2018-05-03 18:00:00 22 14 Norte 33 Norte 0 -- -- 46
2018-05-03 17:00:00 21.6 16 Noroeste 32 Noroeste 0 -- -- 47
2018-05-03 16:00:00 21.8 17 Noroeste 31 Noroeste 0 -- -- 46
2018-05-03 15:00:00 21 17 Noroeste 33 Noroeste 0 -- -- 50
2018-05-03 14:00:00 19.9 14 Noroeste 28 Noroeste 0 -- -- 58
2018-05-03 13:00:00 19 12 Noroeste 25 Noroeste 0 -- -- 62
2018-05-03 12:00:00 17.2 12 Noroeste 21 Noroeste 0 -- -- 68
2018-05-03 11:00:00 14.6 13 Noroeste 21 Noroeste 0 -- -- 79
2018-05-03 10:00:00 11.9 13 Noroeste 20 Noroeste 0 -- -- 87
2018-05-03 09:00:00 9.7 13 Noroeste 20 Noroeste 0 -- -- 97
2018-05-03 08:00:00 8.4 12 Noroeste 19 Noroeste 0 -- -- 97
2018-05-03 07:00:00 8.6 9 Noroeste 14 Noroeste 0 -- -- 96
2018-05-03 06:00:00 9.4 8 Noroeste 15 Noroeste 0 -- -- 93
2018-05-03 05:00:00 9.6 9 Noroeste 15 Noroeste 0 -- -- 93
2018-05-03 04:00:00 9.9 9 Noroeste 16 Noroeste 0 -- -- 92
2018-05-03 03:00:00 9.9 7 Noroeste 15 Noroeste 0 -- -- 91
2018-05-03 02:00:00 10.4 10 Noroeste 17 Noroeste 0 -- -- 90
2018-05-03 01:00:00 10.7 12 Noroeste 18 Noroeste 0 -- -- 88
2018-05-03 00:00:00 11.2 9 Noroeste 15 Noroeste 0 -- -- 85
2018-05-02 23:00:00 11.9 8 Noroeste 17 Noroeste 0 -- -- 81
2018-05-02 22:00:00 12.6 10 Noroeste 26 Noroeste 0 -- -- 77
2018-05-02 21:00:00 14.6 13 Noroeste 23 Noroeste 0 -- -- 67
2018-05-02 20:00:00 16.3 7 Noroeste 22 Norte 0 -- -- 52
2018-05-02 19:00:00 18.5 9 Oeste 22 Noroeste 0 -- -- 43
2018-05-02 18:00:00 18.6 9 Noroeste 20 Noroeste 0 -- -- 43
2018-05-02 17:00:00 17.8 10 Norte 24 Noroeste 0 -- -- 44
2018-05-02 16:00:00 17.8 10 Noroeste 27 Noroeste 0 -- -- 46
2018-05-02 15:00:00 17.4 12 Noroeste 26 Oeste 0 -- -- 41
2018-05-02 14:00:00 16.7 14 Oeste 23 Noroeste 0 -- -- 40
2018-05-02 13:00:00 15.6 9 Noroeste 21 Noroeste 0 -- -- 38
2018-05-02 12:00:00 14.4 10 Noroeste 23 Noroeste 0 -- -- 50
2018-05-02 11:00:00 12.9 11 Norte 18 Noroeste 0 -- -- 53
2018-05-02 10:00:00 10.6 13 Noroeste 21 Norte 0 -- -- 67
2018-05-02 09:00:00 7.7 10 Noroeste 18 Noroeste 0 -- -- 85
2018-05-02 08:00:00 6.1 11 Noroeste 17 Noroeste 0 -- -- 91
2018-05-02 07:00:00 5.8 10 Noroeste 19 Noroeste 0 -- -- 92
2018-05-02 06:00:00 6 10 Noroeste 19 Noroeste 0 -- -- 93
2018-05-02 05:00:00 6.4 11 Noroeste 17 Noroeste 0 -- -- 93
2018-05-02 04:00:00 7.1 10 Noroeste 17 Oeste 0 -- -- 92
2018-05-02 03:00:00 7.6 11 Noroeste 20 Noroeste 0 -- -- 90
2018-05-02 02:00:00 8.5 13 Noroeste 22 Noroeste 0 -- -- 87
2018-05-02 01:00:00 9 14 Noroeste 23 Noroeste 0 -- -- 85
2018-05-02 00:00:00 10.2 13 Noroeste 27 Noroeste 0 -- -- 81
2018-05-01 23:00:00 11.4 17 Oeste 25 Oeste 0 -- -- 74
2018-05-01 22:00:00 12.3 9 Oeste 12 Oeste 0 -- -- 65
2018-05-01 21:00:00 13.8 7 Oeste 23 Noroeste 0 -- -- 59
2018-05-01 20:00:00 15.9 16 Noroeste 25 Noroeste 0 -- -- 48
2018-05-01 19:00:00 15.7 16 Norte 39 Norte 0 -- -- 44
2018-05-01 18:00:00 16 19 Norte 35 Oeste 0 -- -- 49
2018-05-01 17:00:00 16.3 19 Noroeste 40 Noroeste 0 -- -- 44
2018-05-01 16:00:00 15.7 28 Noroeste 42 Noroeste 0 -- -- 53
2018-05-01 15:00:00 16 21 Noroeste 35 Noroeste 0 -- -- 56
2018-05-01 14:00:00 13.8 18 Noroeste 33 Noroeste 0 -- -- 66
2018-05-01 13:00:00 12.2 18 Noroeste 33 Noroeste 0 -- -- 74
2018-05-01 12:00:00 10.2 20 Noroeste 29 Noroeste 0 -- -- 80
2018-05-01 11:00:00 9.4 16 Norte 28 Norte 0 -- -- 86
2018-05-01 10:00:00 8.1 15 Noroeste 30 Noroeste 0 -- -- 94
2018-05-01 09:00:00 7.2 13 Noroeste 24 Noroeste 0 -- -- 99
2018-05-01 08:00:00 6.1 12 Noroeste 21 Noroeste 0 -- -- 100
2018-05-01 07:00:00 6.5 13 Noroeste 18 Noroeste 0 -- -- 99
2018-05-01 06:00:00 6.8 11 Noroeste 18 Noroeste 0 -- -- 98
2018-05-01 05:00:00 7.3 12 Noroeste 21 Noroeste 0 -- -- 97
2018-05-01 04:00:00 8.1 12 Noroeste 19 Noroeste 0 -- -- 94
2018-05-01 03:00:00 8.2 12 Noroeste 18 Noroeste 0 -- -- 93
2018-05-01 02:00:00 9 12 Noroeste 22 Noroeste 0 -- -- 88
2018-05-01 01:00:00 9.1 12 Noroeste 19 Noroeste 0 -- -- 86
2018-05-01 00:00:00 10.4 13 Noroeste 22 Noroeste 0 -- -- 79
2018-04-30 23:00:00 11.3 13 Noroeste 23 Oeste 0 -- -- 74
2018-04-30 22:00:00 12.1 6 Oeste 13 Sudoeste 0 -- -- 75
2018-04-30 21:00:00 14.5 8 Oeste 14 Noroeste 0 -- -- 56
2018-04-30 20:00:00 15.9 7 Oeste 24 Oeste 0 -- -- 46
2018-04-30 19:00:00 15.3 10 Oeste 29 Noroeste 0 -- -- 53
2018-04-30 18:00:00 17 12 Noroeste 31 Noroeste 0 -- -- 46
2018-04-30 17:00:00 15.9 12 Noroeste 23 Noroeste 0 -- -- 50
2018-04-30 16:00:00 16.7 9 Oeste 22 Oeste 0 -- -- 51
2018-04-30 15:00:00 14.4 9 Noroeste 19 Noroeste 0 -- -- 62
2018-04-30 14:00:00 13.7 10 Noroeste 20 Oeste 0 -- -- 56
2018-04-30 13:00:00 13.1 9 Sudoeste 18 Sudoeste 0 -- -- 67
2018-04-30 12:00:00 11.6 4 Noroeste 14 Noroeste 0 -- -- 77
2018-04-30 11:00:00 10.9 0 Calma 5 Sudoeste 0 -- -- 82
2018-04-30 10:00:00 9.5 2 Sudoeste 8 Sudoeste 0.2 -- -- 89
2018-04-30 09:00:00 9.3 3 Sudoeste 6 Sudoeste 0 -- -- 88
2018-04-30 08:00:00 7.2 0 Calma 2 Nordeste 0 -- -- 93
2018-04-30 07:00:00 7.1 0 Calma 5 Noroeste 0 -- -- 92
2018-04-30 06:00:00 7.1 4 Oeste 9 Noroeste 0 -- -- 90
2018-04-30 05:00:00 7.4 7 Oeste 10 Noroeste 0 -- -- 90
2018-04-30 04:00:00 7.7 6 Oeste 12 Noroeste 0 -- -- 87
2018-04-30 03:00:00 7.1 8 Noroeste 11 Oeste 0 -- -- 92
2018-04-30 02:00:00 7.9 5 Noroeste 13 Oeste 0 -- -- 89
2018-04-30 01:00:00 9 10 Oeste 23 Oeste 0 -- -- 83
2018-04-30 00:00:00 9.6 13 Oeste 21 Oeste 0 -- -- 80
2018-04-29 23:00:00 10.1 11 Oeste 24 Noroeste 0 -- -- 76
2018-04-29 22:00:00 10.8 14 Oeste 27 Oeste 0 -- -- 69
2018-04-29 21:00:00 12.4 15 Noroeste 34 Noroeste 0 -- -- 62
2018-04-29 20:00:00 14.2 21 Noroeste 39 Noroeste 0 -- -- 46
2018-04-29 19:00:00 15 25 Noroeste 42 Noroeste 0 -- -- 52
2018-04-29 18:00:00 15 30 Noroeste 50 Noroeste 0 -- -- 58
2018-04-29 17:00:00 15.2 27 Noroeste 48 Noroeste 0 -- -- 55
2018-04-29 16:00:00 13.5 24 Noroeste 41 Oeste 0.2 -- -- 68
2018-04-29 15:00:00 15.2 22 Oeste 40 Sudoeste 0 -- -- 60
2018-04-29 14:00:00 14.2 20 Oeste 41 Oeste 0 -- -- 60
2018-04-29 13:00:00 14 18 Oeste 33 Oeste 0 -- -- 63
2018-04-29 12:00:00 12.7 21 Noroeste 37 Oeste 0 -- -- 67
2018-04-29 11:00:00 11.9 21 Noroeste 36 Noroeste 0 -- -- 78
2018-04-29 10:00:00 10.3 16 Oeste 27 Oeste 0 -- -- 86
2018-04-29 09:00:00 8.6 16 Oeste 35 Oeste 0.2 -- -- 88
2018-04-29 08:00:00 7.3 13 Oeste 25 Noroeste 0 -- -- 93
2018-04-29 07:00:00 6.9 11 Oeste 21 Oeste 0 -- -- 96
2018-04-29 06:00:00 6.8 10 Oeste 25 Oeste 0 -- -- 95
2018-04-29 05:00:00 7.2 15 Oeste 26 Oeste 0 -- -- 95
2018-04-29 04:00:00 7 10 Oeste 25 Oeste 0 -- -- 95
2018-04-29 03:00:00 6.9 10 Oeste 18 Noroeste 0 -- -- 95
2018-04-29 02:00:00 7.2 8 Oeste 15 Oeste 0 -- -- 93
2018-04-29 01:00:00 7.9 9 Oeste 19 Oeste 0 -- -- 92
2018-04-29 00:00:00 7.8 7 Oeste 15 Oeste 0 -- -- 93
2018-04-28 23:00:00 8.3 9 Oeste 18 Oeste 0 -- -- 92
2018-04-28 22:00:00 8.8 8 Oeste 31 Oeste 0 -- -- 93
2018-04-28 21:00:00 10 14 Oeste 31 Noroeste 0.6 -- -- 88
2018-04-28 20:00:00 10.3 11 Sudoeste 36 Oeste 1.4 -- -- 91
2018-04-28 19:00:00 14.1 2 Sudoeste 19 Sudoeste 0.8 -- -- 73
2018-04-28 18:00:00 12.8 9 Sudoeste 26 Sudoeste 0.8 -- -- 83
2018-04-28 17:00:00 13.3 17 Sudoeste 33 Sudoeste 0 -- -- 77
2018-04-28 16:00:00 15 16 Sudoeste 27 Oeste 0 -- -- 63
2018-04-28 15:00:00 15.5 14 Oeste 29 Oeste 0 -- -- 51
2018-04-28 14:00:00 14.9 14 Noroeste 28 Noroeste 0 -- -- 52
2018-04-28 13:00:00 14.7 15 Oeste 29 Noroeste 0 -- -- 58
2018-04-28 12:00:00 12.6 20 Noroeste 29 Noroeste 0 -- -- 59
2018-04-28 11:00:00 12 14 Noroeste 27 Noroeste 0 -- -- 69
2018-04-28 10:00:00 10.5 12 Noroeste 26 Noroeste 0 -- -- 78
2018-04-28 09:00:00 8.4 11 Norte 19 Norte 0 -- -- 88
2018-04-28 08:00:00 7 10 Noroeste 23 Noroeste 0 -- -- 93
2018-04-28 07:00:00 7.5 13 Noroeste 22 Noroeste 0 -- -- 91
2018-04-28 06:00:00 8.2 14 Noroeste 31 Noroeste 0 -- -- 92
2018-04-28 05:00:00 9.2 17 Noroeste 26 Noroeste 0 -- -- 93
2018-04-28 04:00:00 9.8 15 Noroeste 26 Noroeste 0 -- -- 96
2018-04-28 03:00:00 10.5 12 Noroeste 27 Noroeste 0 -- -- 94
2018-04-28 02:00:00 11.4 16 Noroeste 26 Noroeste 0 -- -- 92
2018-04-28 01:00:00 12.4 15 Noroeste 29 Noroeste 0 -- -- 91
2018-04-28 00:00:00 13.5 17 Noroeste 30 Noroeste 0 -- -- 87
2018-04-27 23:00:00 15 17 Noroeste 30 Noroeste 0 -- -- 82
2018-04-27 22:00:00 16.6 11 Noroeste 21 Noroeste 0 -- -- 74
2018-04-27 21:00:00 18.8 13 Noroeste 29 Noroeste 0 -- -- 65
2018-04-27 20:00:00 20.4 18 Noroeste 31 Noroeste 0 -- -- 55
2018-04-27 19:00:00 21.3 18 Noroeste 33 Noroeste 0 -- -- 50
2018-04-27 18:00:00 22 21 Noroeste 33 Noroeste 0 -- -- 43
2018-04-27 17:00:00 22.1 19 Noroeste 35 Noroeste 0 -- -- 42
2018-04-27 16:00:00 21.7 17 Noroeste 32 Noroeste 0 -- -- 47
2018-04-27 15:00:00 21 15 Noroeste 32 Noroeste 0 -- -- 49
2018-04-27 14:00:00 19.9 18 Noroeste 27 Noroeste 0 -- -- 54
2018-04-27 13:00:00 18.3 18 Noroeste 29 Noroeste 0 -- -- 60
2018-04-27 12:00:00 16.1 19 Noroeste 30 Oeste 0 -- -- 68
2018-04-27 11:00:00 13.7 17 Noroeste 28 Noroeste 0 -- -- 76
2018-04-27 10:00:00 11.6 16 Noroeste 29 Noroeste 0 -- -- 86
2018-04-27 09:00:00 9.8 14 Noroeste 30 Noroeste 0 -- -- 98
2018-04-27 08:00:00 9.4 20 Noroeste 28 Noroeste 0 -- -- 99
2018-04-27 07:00:00 10.2 18 Noroeste 24 Noroeste 0 -- -- 97
2018-04-27 06:00:00 12.1 15 Noroeste 25 Noroeste 0 -- -- 94
2018-04-27 05:00:00 13.9 10 Noroeste 20 Noroeste 0 -- -- 90
2018-04-27 04:00:00 14.9 8 Noroeste 12 Noroeste 0 -- -- 98
2018-04-27 03:00:00 15.3 4 Oeste 9 Sudoeste 0 -- -- 99
2018-04-27 02:00:00 15.4 7 Sudoeste 19 Sur 0 -- -- 99
2018-04-27 01:00:00 15.3 19 Sur 24 Sur 0 -- -- 99
2018-04-27 00:00:00 15.2 14 Sur 26 Sudoeste 0 -- -- 98
2018-04-26 23:00:00 15.3 23 Sudoeste 33 Sur 0 -- -- 96
2018-04-26 22:00:00 16.3 28 Sur 35 Sur 0 -- -- 91
2018-04-26 21:00:00 18.4 29 Sur 35 Sur 0 -- -- 83
2018-04-26 20:00:00 21.6 18 Sudoeste 25 Sudoeste 0 -- -- 75
2018-04-26 19:00:00 23.6 18 Sudoeste 26 Sudoeste 0 -- -- 69
2018-04-26 18:00:00 24.3 14 Sur 26 Sur 0 -- -- 59
2018-04-26 17:00:00 24 14 Sudoeste 22 Sur 0 -- -- 62
2018-04-26 16:00:00 23.8 10 Sur 20 Sudeste 0 -- -- 62
2018-04-26 15:00:00 22.9 10 Sur 21 Sur 0 -- -- 69
2018-04-26 14:00:00 22 10 Sur 19 Sudoeste 0 -- -- 75
2018-04-26 13:00:00 20.6 6 Sudeste 14 Sur 0 -- -- 79
2018-04-26 12:00:00 18.4 8 Este 18 Este 0 -- -- 87
2018-04-26 11:00:00 15.8 9 Sudeste 14 Sudeste 0 -- -- 100
2018-04-26 10:00:00 15.1 3 Este 6 Noroeste 0 -- -- 100
2018-04-26 09:00:00 14.7 2 Noroeste 13 Oeste 0 -- -- 100
2018-04-26 08:00:00 14.2 7 Noroeste 23 Noroeste 0 -- -- 100
2018-04-26 07:00:00 14.2 15 Noroeste 29 Noroeste 0 -- -- 100
2018-04-26 06:00:00 14.8 18 Noroeste 29 Noroeste 0 -- -- 100
2018-04-26 05:00:00 15.1 14 Noroeste 22 Noroeste 0 -- -- 100
2018-04-26 04:00:00 14.9 10 Oeste 26 Sur 0 -- -- 98
2018-04-26 03:00:00 15 21 Sudoeste 35 Sudoeste 1.4 -- -- 100
2018-04-26 02:00:00 15.2 18 Sur 41 Sudeste 0 -- -- 100
2018-04-26 01:00:00 15.1 8 Sur 14 Sur 0 -- -- 99
2018-04-26 00:00:00 15.4 8 Sudoeste 17 Sudoeste 0 -- -- 98
2018-04-25 23:00:00 16.5 5 Sudoeste 19 Sudoeste 0 -- -- 95
2018-04-25 22:00:00 17.3 13 Sur 26 Sur 0 -- -- 92
2018-04-25 21:00:00 18.8 21 Sur 30 Sur 0 -- -- 86
2018-04-25 20:00:00 20.9 26 Sur 35 Sur 0 -- -- 80
2018-04-25 19:00:00 22.3 25 Sur 34 Sudoeste 0 -- -- 77
2018-04-25 18:00:00 24 30 Sur 35 Sur 0 -- -- 72
2018-04-25 17:00:00 26.7 14 Sur 25 Sur 0 -- -- 62
2018-04-25 16:00:00 26.4 8 Sudoeste 15 Noroeste 0 -- -- 61
2018-04-25 15:00:00 25 6 Oeste 14 Noroeste 0 -- -- 61
2018-04-25 14:00:00 24.3 4 Sur 13 Nordeste 0 -- -- 63
2018-04-25 13:00:00 22.9 6 Sudeste 12 Sudeste 0 -- -- 67
2018-04-25 12:00:00 20.4 5 Este 12 Nordeste 0 -- -- 77
2018-04-25 11:00:00 17.2 4 Nordeste 12 Norte 0 -- -- 91
2018-04-25 10:00:00 14.2 8 Noroeste 14 Noroeste 0 -- -- 100
2018-04-25 09:00:00 13.7 6 Noroeste 14 Noroeste 0 -- -- 100
2018-04-25 08:00:00 13.4 10 Noroeste 21 Noroeste 0 -- -- 100
2018-04-25 07:00:00 14 13 Noroeste 21 Noroeste 0 -- -- 100
2018-04-25 06:00:00 14.4 7 Noroeste 12 Noroeste 0 -- -- 94
2018-04-25 05:00:00 15.1 3 Sudoeste 15 Sur 0 -- -- 90
2018-04-25 04:00:00 15.2 11 Noroeste 19 Noroeste 0 -- -- 91
2018-04-25 03:00:00 16.4 13 Noroeste 17 Noroeste 0 -- -- 87
2018-04-25 02:00:00 16.3 7 Noroeste 17 Noroeste 0 -- -- 86
2018-04-25 01:00:00 17 8 Noroeste 11 Noroeste 0 -- -- 82
2018-04-25 00:00:00 17.4 8 Noroeste 12 Noroeste 0 -- -- 79
2018-04-24 23:00:00 17.7 8 Noroeste 15 Noroeste 0 -- -- 77
2018-04-24 22:00:00 18.3 8 Noroeste 15 Oeste 0 -- -- 74
2018-04-24 21:00:00 19 9 Oeste 15 Sudoeste 0 -- -- 71
2018-04-24 20:00:00 20.5 12 Sudoeste 21 Sudoeste 0 -- -- 68
2018-04-24 19:00:00 21.8 15 Sur 23 Sur 0 -- -- 66
2018-04-24 18:00:00 21.5 15 Sudoeste 22 Sur 0 -- -- 72
2018-04-24 17:00:00 21.7 8 Sudoeste 19 Sudoeste 0 -- -- 72
2018-04-24 16:00:00 21.6 12 Sur 21 Sudoeste 0 -- -- 75
2018-04-24 15:00:00 21.2 10 Sudoeste 19 Sudoeste 0 -- -- 68
2018-04-24 14:00:00 20.4 13 Sudoeste 21 Sudoeste 0 -- -- 73
2018-04-24 13:00:00 19.4 10 Sudoeste 15 Sur 0 -- -- 79
2018-04-24 12:00:00 18.8 9 Sur 19 Sur 0 -- -- 77
2018-04-24 11:00:00 17.5 9 Sur 17 Sudeste 0 -- -- 84
2018-04-24 10:00:00 16.6 5 Noroeste 26 Sudeste 0 -- -- 84
2018-04-24 09:00:00 15.7 14 Noroeste 21 Noroeste 0 -- -- 88
2018-04-24 08:00:00 16 14 Sudoeste 28 Sur 0 -- -- 83
2018-04-24 07:00:00 16.3 23 Sur 28 Sur 0 -- -- 82
2018-04-24 06:00:00 16.1 18 Sur 37 Sur 0 -- -- 88
2018-04-24 05:00:00 16.7 2 Norte 14 Sudeste 0 -- -- 88
2018-04-24 04:00:00 16.4 14 Este 35 Sur 0 -- -- 89
2018-04-24 03:00:00 17 18 Sur 35 Sur -- -- -- 87
2018-04-24 02:00:00 20.6 5 Norte 13 Norte 0 -- -- 63
2018-04-24 01:00:00 20.4 8 Norte 14 Nordeste 0 -- -- 66
2018-04-24 00:00:00 20.7 6 Nordeste 13 Nordeste 0 -- -- 75